Time;durP1;ratioP1;P1;durP2;ratioP2;P2;SDS_P1;SDS_P2;PMS_P1;PMS_P2;Temp;Humidity;BMP_temperature;BMP_pressure;BME280_temperature;BME280_humidity;BME280_pressure;Samples;Min_cycle;Max_cycle;Signal;HPM_P1;HPM_P2
2022/11/26 00:01:19;;;;;;;189.13;85.73;;;;;;;;;;5056605;28;20208;-41
2022/11/26 00:03:46;;;;;;;163.63;56.77;;;;;;;;;;5056224;28;20224;-41
2022/11/26 00:06:34;;;;;;;143.77;45.73;;;;;;;;;;5056192;28;20196;-42
2022/11/26 00:09:03;;;;;;;164.83;46.90;;;;;;;;;;5048755;28;20208;-41
2022/11/26 00:11:30;;;;;;;165.00;45.43;;;;;;;;;;5056318;28;20246;-42
2022/11/26 00:13:57;;;;;;;146.27;41.93;;;;;;;;;;5056229;28;20214;-41
2022/11/26 00:16:25;;;;;;;162.93;45.73;;;;;;;;;;5056237;28;20270;-43
2022/11/26 00:18:52;;;;;;;146.60;41.57;;;;;;;;;;5055195;28;20204;-40
2022/11/26 00:21:22;;;;;;;147.60;40.77;;;;;;;;;;5055845;28;20204;-41
2022/11/26 00:23:50;;;;;;;133.40;39.50;;;;;;;;;;5056202;28;20297;-40
2022/11/26 00:26:19;;;;;;;140.77;38.83;;;;;;;;;;5055008;28;20542;-40
2022/11/26 00:28:48;;;;;;;233.60;86.53;;;;;;;;;;5055919;28;20281;-41
2022/11/26 00:31:15;;;;;;;171.87;71.30;;;;;;;;;;5056177;28;20204;-40
2022/11/26 00:33:43;;;;;;;169.40;56.07;;;;;;;;;;5055542;28;20269;-40
2022/11/26 00:36:26;;;;;;;169.67;51.47;;;;;;;;;;5056237;28;20206;-40
2022/11/26 00:38:56;;;;;;;158.13;43.10;;;;;;;;;;5054842;28;20219;-40
2022/11/26 00:41:24;;;;;;;145.67;39.57;;;;;;;;;;5054639;28;20211;-40
2022/11/26 00:43:51;;;;;;;155.20;41.90;;;;;;;;;;5054552;28;20231;-40
2022/11/26 00:46:20;;;;;;;136.13;38.87;;;;;;;;;;5055383;28;20637;-40
2022/11/26 00:48:47;;;;;;;153.40;41.73;;;;;;;;;;5055291;28;20208;-40
2022/11/26 00:51:18;;;;;;;142.30;38.53;;;;;;;;;;5055538;28;20295;-41
2022/11/26 00:53:46;;;;;;;146.03;39.00;;;;;;;;;;5054560;28;20219;-40
2022/11/26 00:56:16;;;;;;;125.93;37.43;;;;;;;;;;5055113;28;20614;-40
2022/11/26 00:58:45;;;;;;;228.00;84.47;;;;;;;;;;5054752;28;20269;-40
2022/11/26 01:01:16;;;;;;;168.47;63.53;;;;;;;;;;5055170;28;20200;-41
2022/11/26 01:03:43;;;;;;;160.53;56.47;;;;;;;;;;5055259;28;20195;-41
2022/11/26 01:06:17;;;;;;;203.40;52.30;;;;;;;;;;5054984;28;20200;-40
2022/11/26 01:08:45;;;;;;;173.63;44.77;;;;;;;;;;5055268;28;20608;-40
2022/11/26 01:11:14;;;;;;;191.17;49.00;;;;;;;;;;5055025;28;20322;-40
2022/11/26 01:13:43;;;;;;;142.90;41.43;;;;;;;;;;5055402;28;20215;-41
2022/11/26 01:16:18;;;;;;;165.80;43.20;;;;;;;;;;5055211;28;20200;-40
2022/11/26 01:18:46;;;;;;;174.63;43.37;;;;;;;;;;5054094;28;20203;-41
2022/11/26 01:21:14;;;;;;;162.10;43.73;;;;;;;;;;5054815;28;20211;-40
2022/11/26 01:23:41;;;;;;;152.83;40.47;;;;;;;;;;5054117;28;20200;-40
2022/11/26 01:26:15;;;;;;;137.27;38.57;;;;;;;;;;5054893;28;20214;-40
2022/11/26 01:28:43;;;;;;;159.80;53.60;;;;;;;;;;5054191;28;20191;-40
2022/11/26 01:31:15;;;;;;;142.47;53.70;;;;;;;;;;5054904;28;20218;-40
2022/11/26 01:33:43;;;;;;;145.43;44.60;;;;;;;;;;5054628;28;20242;-40
2022/11/26 01:36:21;;;;;;;158.13;43.57;;;;;;;;;;5054800;28;20303;-40
2022/11/26 01:38:51;;;;;;;176.80;46.20;;;;;;;;;;5054164;28;20195;-40
2022/11/26 01:41:33;;;;;;;176.77;47.57;;;;;;;;;;5054807;28;20204;-41
2022/11/26 01:44:00;;;;;;;150.13;42.63;;;;;;;;;;5054251;28;20589;-40
2022/11/26 01:46:29;;;;;;;153.17;42.53;;;;;;;;;;5054270;28;20712;-40
2022/11/26 01:49:22;;;;;;;151.03;43.83;;;;;;;;;;5053845;28;20285;-40
2022/11/26 01:51:57;;;;;;;135.83;39.33;;;;;;;;;;5054568;28;20184;-40
2022/11/26 01:54:24;;;;;;;135.63;36.90;;;;;;;;;;5053702;28;20219;-40
2022/11/26 01:56:54;;;;;;;196.60;69.70;;;;;;;;;;5055488;28;20232;-40
2022/11/26 01:59:29;;;;;;;132.90;42.83;;;;;;;;;;5049998;28;20197;-40
2022/11/26 02:01:57;;;;;;;147.80;50.03;;;;;;;;;;5035078;28;20185;-40
2022/11/26 02:04:37;;;;;;;145.40;47.23;;;;;;;;;;5033865;28;20243;-40
2022/11/26 02:07:04;;;;;;;143.57;40.13;;;;;;;;;;5033623;28;20666;-40
2022/11/26 02:09:32;;;;;;;146.90;40.13;;;;;;;;;;5034437;28;20243;-41
2022/11/26 02:11:58;;;;;;;140.07;41.67;;;;;;;;;;5034816;28;20239;-40
2022/11/26 02:14:30;;;;;;;131.83;38.87;;;;;;;;;;5034303;28;20223;-40
2022/11/26 02:17:05;;;;;;;126.13;38.70;;;;;;;;;;5034622;28;20248;-40
2022/11/26 02:20:10;;;;;;;128.57;36.20;;;;;;;;;;5034629;28;20188;-40
2022/11/26 02:22:49;;;;;;;123.00;36.03;;;;;;;;;;5034489;28;20280;-40
2022/11/26 02:25:43;;;;;;;135.73;40.50;;;;;;;;;;5034574;28;20217;-40
2022/11/26 02:28:32;;;;;;;231.30;91.73;;;;;;;;;;5034297;28;20239;-40
2022/11/26 02:31:34;;;;;;;142.40;63.13;;;;;;;;;;5034435;28;20204;-40
2022/11/26 02:34:32;;;;;;;135.97;45.17;;;;;;;;;;5018512;28;20304;-40
2022/11/26 02:37:25;;;;;;;251.87;60.10;;;;;;;;;;5034849;28;20200;-40
2022/11/26 02:39:52;;;;;;;160.80;44.37;;;;;;;;;;5033547;28;20225;-40
2022/11/26 02:42:28;;;;;;;159.73;43.00;;;;;;;;;;5034358;28;20209;-40
2022/11/26 02:45:15;;;;;;;142.60;43.43;;;;;;;;;;5034052;28;20661;-40
2022/11/26 02:47:43;;;;;;;150.30;41.97;;;;;;;;;;5034362;28;20204;-41
2022/11/26 02:50:44;;;;;;;113.60;35.20;;;;;;;;;;5016849;28;20283;-40
2022/11/26 02:53:12;;;;;;;129.10;39.37;;;;;;;;;;5011909;28;20637;-40
2022/11/26 02:55:43;;;;;;;148.87;43.87;;;;;;;;;;5034264;28;20213;-40
2022/11/26 02:58:10;;;;;;;151.53;64.17;;;;;;;;;;5036982;28;20282;-40
2022/11/26 03:00:40;;;;;;;146.47;57.47;;;;;;;;;;5036815;28;20288;-40
2022/11/26 03:03:10;;;;;;;127.70;41.77;;;;;;;;;;5036611;28;20224;-43
2022/11/26 03:05:39;;;;;;;195.93;53.53;;;;;;;;;;5037027;28;20290;-41
2022/11/26 03:08:06;;;;;;;134.27;40.57;;;;;;;;;;5036726;28;20201;-41
2022/11/26 03:10:33;;;;;;;114.67;35.73;;;;;;;;;;5036220;28;20267;-40
2022/11/26 03:13:00;;;;;;;155.40;47.97;;;;;;;;;;5037716;28;20208;-40
2022/11/26 03:15:27;;;;;;;150.30;45.47;;;;;;;;;;5037154;28;20219;-40
2022/11/26 03:17:54;;;;;;;139.27;42.93;;;;;;;;;;5037287;28;20208;-40
2022/11/26 03:20:21;;;;;;;139.33;43.60;;;;;;;;;;5037163;28;20205;-40
2022/11/26 03:22:48;;;;;;;159.93;48.60;;;;;;;;;;5037814;28;20196;-40
2022/11/26 03:25:15;;;;;;;156.17;45.00;;;;;;;;;;5036985;28;20720;-40
2022/11/26 03:27:42;;;;;;;170.17;68.17;;;;;;;;;;5037396;28;20224;-40
2022/11/26 03:30:09;;;;;;;136.77;61.70;;;;;;;;;;5036907;28;20638;-40
2022/11/26 03:32:36;;;;;;;159.47;59.53;;;;;;;;;;5037326;28;20208;-40
2022/11/26 03:35:04;;;;;;;173.40;50.53;;;;;;;;;;5036800;28;20713;-41
2022/11/26 03:37:31;;;;;;;206.17;56.13;;;;;;;;;;5036961;28;20221;-40
2022/11/26 03:39:58;;;;;;;154.67;45.77;;;;;;;;;;5037048;28;20208;-41
2022/11/26 03:42:25;;;;;;;145.77;44.00;;;;;;;;;;5037019;28;20209;-40
2022/11/26 03:44:52;;;;;;;143.20;43.23;;;;;;;;;;5036655;28;20216;-40
2022/11/26 03:47:19;;;;;;;130.90;41.23;;;;;;;;;;5036791;28;20274;-40
2022/11/26 03:49:46;;;;;;;109.07;36.43;;;;;;;;;;5036470;28;20207;-41
2022/11/26 03:52:13;;;;;;;144.83;40.23;;;;;;;;;;5036380;28;20201;-40
2022/11/26 03:54:40;;;;;;;126.33;38.63;;;;;;;;;;5036655;28;20204;-40
2022/11/26 03:57:07;;;;;;;153.70;57.60;;;;;;;;;;5036496;28;20204;-40
2022/11/26 03:59:34;;;;;;;132.93;53.47;;;;;;;;;;5036446;28;20201;-40
2022/11/26 04:02:01;;;;;;;155.17;55.00;;;;;;;;;;5037208;28;20205;-40
2022/11/26 04:04:28;;;;;;;201.00;54.50;;;;;;;;;;5036484;28;20275;-40
2022/11/26 04:06:55;;;;;;;180.83;48.63;;;;;;;;;;5036661;28;20204;-40
2022/11/26 04:09:22;;;;;;;164.07;46.87;;;;;;;;;;5035815;28;20200;-41
2022/11/26 04:11:49;;;;;;;176.37;45.90;;;;;;;;;;5036124;28;20248;-42
2022/11/26 04:14:15;;;;;;;154.23;44.00;;;;;;;;;;5036272;28;20230;-40
2022/11/26 04:16:43;;;;;;;174.73;48.40;;;;;;;;;;5036355;28;20204;-40
2022/11/26 04:19:09;;;;;;;156.90;46.70;;;;;;;;;;5036270;28;20201;-40
2022/11/26 04:21:37;;;;;;;143.13;39.87;;;;;;;;;;5036306;28;20539;-41
2022/11/26 04:24:04;;;;;;;158.77;45.90;;;;;;;;;;5035929;28;20546;-40
2022/11/26 04:26:31;;;;;;;178.13;86.20;;;;;;;;;;5035682;28;20556;-40
2022/11/26 04:28:57;;;;;;;194.40;87.63;;;;;;;;;;5036285;28;20255;-40
2022/11/26 04:31:25;;;;;;;191.27;65.73;;;;;;;;;;5036011;28;20208;-40
2022/11/26 04:33:51;;;;;;;307.17;71.93;;;;;;;;;;5036097;28;20216;-40
2022/11/26 04:36:19;;;;;;;228.67;57.83;;;;;;;;;;5036086;28;20227;-40
2022/11/26 04:38:46;;;;;;;173.20;44.00;;;;;;;;;;5035688;28;20204;-40
2022/11/26 04:41:13;;;;;;;170.90;46.83;;;;;;;;;;5035891;28;20201;-41
2022/11/26 04:43:39;;;;;;;184.57;50.53;;;;;;;;;;5035742;28;20327;-41
2022/11/26 04:46:07;;;;;;;176.73;46.57;;;;;;;;;;5035918;28;20593;-40
2022/11/26 04:48:33;;;;;;;170.03;43.53;;;;;;;;;;5035460;28;20208;-40
2022/11/26 04:51:00;;;;;;;182.83;49.23;;;;;;;;;;5035440;28;20204;-41
2022/11/26 04:53:27;;;;;;;170.37;43.63;;;;;;;;;;5035493;28;20561;-40
2022/11/26 04:55:54;;;;;;;380.27;213.83;;;;;;;;;;5035387;28;20213;-40
2022/11/26 04:58:21;;;;;;;230.73;96.13;;;;;;;;;;5035292;28;20201;-40
2022/11/26 05:00:49;;;;;;;179.23;53.57;;;;;;;;;;5035803;28;20219;-40
2022/11/26 05:03:17;;;;;;;302.83;73.70;;;;;;;;;;5034577;28;20215;-40
2022/11/26 05:05:45;;;;;;;225.13;54.87;;;;;;;;;;5035320;28;20297;-44
2022/11/26 05:08:12;;;;;;;198.30;48.87;;;;;;;;;;5035238;28;20343;-40
2022/11/26 05:10:39;;;;;;;183.43;43.00;;;;;;;;;;5035008;28;20613;-40
2022/11/26 05:13:06;;;;;;;188.80;41.70;;;;;;;;;;5035315;28;20296;-40
2022/11/26 05:15:34;;;;;;;197.10;41.90;;;;;;;;;;5035218;28;20216;-40
2022/11/26 05:18:01;;;;;;;177.13;41.37;;;;;;;;;;5035205;28;20215;-40
2022/11/26 05:20:28;;;;;;;166.60;39.23;;;;;;;;;;5034372;28;20216;-40
2022/11/26 05:22:55;;;;;;;160.47;38.43;;;;;;;;;;5034829;28;20200;-40
2022/11/26 05:25:22;;;;;;;236.13;83.93;;;;;;;;;;5035627;28;20236;-40
2022/11/26 05:27:48;;;;;;;233.20;82.73;;;;;;;;;;5034090;28;20209;-40
2022/11/26 05:30:15;;;;;;;231.60;62.43;;;;;;;;;;5033674;28;20339;-40
2022/11/26 05:32:42;;;;;;;243.60;62.27;;;;;;;;;;5034838;28;20211;-40
2022/11/26 05:35:09;;;;;;;244.40;59.70;;;;;;;;;;5035110;28;20216;-40
2022/11/26 05:37:36;;;;;;;206.67;51.23;;;;;;;;;;5034940;28;20216;-40
2022/11/26 05:40:04;;;;;;;183.27;41.90;;;;;;;;;;5034988;28;20645;-40
2022/11/26 05:42:30;;;;;;;169.93;43.10;;;;;;;;;;5035240;28;20266;-40
2022/11/26 05:44:58;;;;;;;175.57;43.57;;;;;;;;;;5034858;28;20532;-40
2022/11/26 05:47:24;;;;;;;191.20;43.53;;;;;;;;;;5033886;28;20197;-41
2022/11/26 05:49:52;;;;;;;213.10;45.47;;;;;;;;;;5034920;28;20596;-41
2022/11/26 05:52:19;;;;;;;182.17;42.37;;;;;;;;;;5039251;28;20204;-40
2022/11/26 05:54:46;;;;;;;200.50;53.63;;;;;;;;;;5054679;28;20207;-41
2022/11/26 05:57:13;;;;;;;167.03;47.03;;;;;;;;;;5054354;28;20243;-40
2022/11/26 05:59:40;;;;;;;271.47;75.57;;;;;;;;;;5054603;28;20237;-40
2022/11/26 06:02:07;;;;;;;206.87;46.73;;;;;;;;;;5054507;28;20203;-42
2022/11/26 06:04:35;;;;;;;150.13;40.37;;;;;;;;;;5054406;28;20204;-40
2022/11/26 06:07:02;;;;;;;208.53;47.23;;;;;;;;;;5054542;28;20258;-39
2022/11/26 06:09:29;;;;;;;242.90;54.43;;;;;;;;;;5054594;28;20200;-40
2022/11/26 06:11:56;;;;;;;241.73;54.03;;;;;;;;;;5054499;28;20761;-41
2022/11/26 06:14:23;;;;;;;230.57;53.80;;;;;;;;;;5054235;28;20640;-39
2022/11/26 06:16:50;;;;;;;249.00;53.77;;;;;;;;;;5054259;28;20204;-41
2022/11/26 06:19:17;;;;;;;207.23;47.63;;;;;;;;;;5054390;28;20208;-40
2022/11/26 06:21:44;;;;;;;226.33;46.90;;;;;;;;;;5054513;28;20253;-41
2022/11/26 06:24:11;;;;;;;175.17;42.50;;;;;;;;;;5054329;28;20215;-40
2022/11/26 06:26:38;;;;;;;199.80;38.80;;;;;;;;;;5054485;28;20301;-40
2022/11/26 06:29:05;;;;;;;175.23;38.93;;;;;;;;;;5054126;28;20657;-40
2022/11/26 06:31:32;;;;;;;199.07;41.77;;;;;;;;;;5056107;28;20637;-40
2022/11/26 06:34:00;;;;;;;246.23;51.03;;;;;;;;;;5053109;28;20546;-41
2022/11/26 06:36:26;;;;;;;210.83;47.17;;;;;;;;;;5053440;28;20608;-40
2022/11/26 06:38:53;;;;;;;217.27;42.40;;;;;;;;;;5048068;28;20261;-40
2022/11/26 06:41:20;;;;;;;208.77;44.23;;;;;;;;;;5046401;28;20197;-41
2022/11/26 06:43:47;;;;;;;211.50;42.03;;;;;;;;;;5051555;28;20204;-40
2022/11/26 06:46:14;;;;;;;206.80;40.27;;;;;;;;;;5047989;28;20217;-40
2022/11/26 06:48:41;;;;;;;217.57;44.93;;;;;;;;;;5054227;28;20629;-41
2022/11/26 06:51:10;;;;;;;317.90;55.50;;;;;;;;;;5048396;28;20280;-41
2022/11/26 06:53:38;;;;;;;295.63;71.10;;;;;;;;;;5054053;28;20212;-46
2022/11/26 06:56:07;;;;;;;248.70;54.27;;;;;;;;;;5048099;28;20200;-40
2022/11/26 06:58:34;;;;;;;226.27;49.40;;;;;;;;;;5050588;28;20527;-40
2022/11/26 07:01:09;;;;;;;233.80;42.63;;;;;;;;;;5047431;28;20279;-40
2022/11/26 07:03:36;;;;;;;230.27;43.20;;;;;;;;;;5048351;28;20184;-41
2022/11/26 07:06:03;;;;;;;339.20;45.60;;;;;;;;;;5050116;28;20311;-41
2022/11/26 07:08:30;;;;;;;225.00;37.83;;;;;;;;;;5054627;28;20196;-49
2022/11/26 07:11:01;;;;;;;271.57;39.43;;;;;;;;;;5052615;28;20236;-41
2022/11/26 07:13:28;;;;;;;242.10;40.03;;;;;;;;;;5053814;28;20301;-39
2022/11/26 07:16:01;;;;;;;308.23;40.07;;;;;;;;;;5067397;28;20224;-40
2022/11/26 07:18:28;;;;;;;236.43;41.60;;;;;;;;;;5055214;28;20558;-41
2022/11/26 07:20:55;;;;;;;224.57;39.90;;;;;;;;;;5055710;28;20230;-40
2022/11/26 07:23:22;;;;;;;221.77;42.70;;;;;;;;;;5055583;28;20779;-41
2022/11/26 07:25:49;;;;;;;239.63;52.27;;;;;;;;;;5055832;28;20678;-43
2022/11/26 07:28:16;;;;;;;267.00;43.53;;;;;;;;;;5056412;28;20220;-42
2022/11/26 07:30:43;;;;;;;199.27;39.73;;;;;;;;;;5055954;28;20246;-41
2022/11/26 07:33:10;;;;;;;283.53;46.77;;;;;;;;;;5055196;28;20295;-42
2022/11/26 07:35:37;;;;;;;330.87;52.53;;;;;;;;;;5055801;28;20224;-42
2022/11/26 07:38:04;;;;;;;272.70;42.90;;;;;;;;;;5055445;28;20742;-41
2022/11/26 07:40:31;;;;;;;267.47;44.47;;;;;;;;;;5055316;28;20216;-40
2022/11/26 07:42:59;;;;;;;239.57;41.73;;;;;;;;;;5055045;28;20562;-40
2022/11/26 07:45:25;;;;;;;285.20;50.90;;;;;;;;;;5051795;28;20227;-41
2022/11/26 07:47:53;;;;;;;270.77;47.93;;;;;;;;;;5048037;28;20224;-42
2022/11/26 07:50:19;;;;;;;245.50;47.67;;;;;;;;;;5046438;28;20310;-43
2022/11/26 07:52:50;;;;;;;257.00;47.60;;;;;;;;;;5044425;28;20234;-43
2022/11/26 07:55:17;;;;;;;318.80;88.33;;;;;;;;;;5051217;28;20236;-42
2022/11/26 07:57:44;;;;;;;325.97;104.03;;;;;;;;;;5054489;28;20307;-41
2022/11/26 08:00:12;;;;;;;294.73;81.27;;;;;;;;;;5054366;28;20215;-43
2022/11/26 08:02:39;;;;;;;414.37;76.97;;;;;;;;;;5053112;28;20212;-42
2022/11/26 08:05:06;;;;;;;299.93;61.50;;;;;;;;;;5055719;28;20220;-42
2022/11/26 08:07:35;;;;;;;315.63;57.97;;;;;;;;;;5055366;28;20216;-43
2022/11/26 08:10:03;;;;;;;247.33;54.37;;;;;;;;;;5054896;28;20719;-44
2022/11/26 08:12:30;;;;;;;318.40;61.60;;;;;;;;;;5053761;28;20188;-46
2022/11/26 08:14:57;;;;;;;299.97;61.57;;;;;;;;;;5054584;28;20200;-42
2022/11/26 08:17:24;;;;;;;350.93;53.20;;;;;;;;;;5055006;28;20204;-45
2022/11/26 08:19:51;;;;;;;357.47;51.30;;;;;;;;;;5054011;28;20204;-46
2022/11/26 08:22:18;;;;;;;346.03;57.53;;;;;;;;;;5054286;28;20265;-43
2022/11/26 08:24:45;;;;;;;356.33;103.43;;;;;;;;;;5055110;28;20208;-42
2022/11/26 08:27:12;;;;;;;480.10;89.77;;;;;;;;;;5054120;28;20228;-44
2022/11/26 08:29:39;;;;;;;711.77;118.67;;;;;;;;;;5054754;28;20200;-42
2022/11/26 08:32:06;;;;;;;578.47;108.77;;;;;;;;;;5052074;28;20208;-44
2022/11/26 08:34:33;;;;;;;591.67;123.33;;;;;;;;;;5034341;28;20213;-43
2022/11/26 08:37:00;;;;;;;528.43;104.27;;;;;;;;;;5034002;28;20209;-45
2022/11/26 08:39:27;;;;;;;523.43;112.00;;;;;;;;;;5051872;28;20203;-42
2022/11/26 08:41:54;;;;;;;471.70;79.60;;;;;;;;;;5037221;28;20220;-43
2022/11/26 08:44:21;;;;;;;312.33;64.87;;;;;;;;;;5050852;28;20227;-43
2022/11/26 08:46:49;;;;;;;304.13;54.07;;;;;;;;;;5053638;28;20239;-42
2022/11/26 08:49:15;;;;;;;232.07;44.07;;;;;;;;;;5051641;28;20652;-42
2022/11/26 08:51:43;;;;;;;245.63;60.17;;;;;;;;;;5043439;28;20270;-42
2022/11/26 08:54:10;;;;;;;386.03;117.97;;;;;;;;;;5052708;28;20250;-44
2022/11/26 08:56:37;;;;;;;299.70;64.33;;;;;;;;;;5053433;28;20247;-43
2022/11/26 08:59:04;;;;;;;243.70;59.83;;;;;;;;;;5054182;28;20635;-45
2022/11/26 09:01:32;;;;;;;239.47;59.77;;;;;;;;;;5053987;28;20239;-42
2022/11/26 09:04:00;;;;;;;370.73;66.83;;;;;;;;;;5054449;28;20224;-44
2022/11/26 09:06:29;;;;;;;246.00;54.67;;;;;;;;;;5053715;28;20235;-44
2022/11/26 09:09:11;;;;;;;221.80;50.23;;;;;;;;;;5053033;28;20649;-43
2022/11/26 09:11:41;;;;;;;208.43;42.33;;;;;;;;;;5053573;28;20240;-43
2022/11/26 09:14:09;;;;;;;209.83;44.77;;;;;;;;;;5053358;28;20228;-44
2022/11/26 09:16:36;;;;;;;225.20;43.63;;;;;;;;;;5053186;28;20239;-45
2022/11/26 09:19:05;;;;;;;198.37;41.63;;;;;;;;;;5052608;28;20224;-44
2022/11/26 09:21:34;;;;;;;248.43;48.97;;;;;;;;;;5054015;28;20223;-45
2022/11/26 09:24:01;;;;;;;183.70;39.90;;;;;;;;;;5053528;28;20228;-43
2022/11/26 09:26:30;;;;;;;267.23;50.93;;;;;;;;;;5052230;28;20243;-41
2022/11/26 09:28:57;;;;;;;290.60;77.17;;;;;;;;;;5052559;28;20302;-45
2022/11/26 09:31:25;;;;;;;340.70;57.67;;;;;;;;;;5052960;28;20235;-41
2022/11/26 09:33:54;;;;;;;299.67;65.10;;;;;;;;;;5053115;28;20234;-44
2022/11/26 09:36:21;;;;;;;231.33;48.07;;;;;;;;;;5053623;28;20235;-43
2022/11/26 09:38:52;;;;;;;208.20;46.37;;;;;;;;;;5052041;28;20684;-43
2022/11/26 09:41:41;;;;;;;235.27;51.40;;;;;;;;;;5052868;28;20227;-44
2022/11/26 09:44:24;;;;;;;256.30;53.43;;;;;;;;;;5052307;28;20734;-45
2022/11/26 09:47:00;;;;;;;193.47;44.70;;;;;;;;;;5053693;28;20228;-44
2022/11/26 09:50:02;;;;;;;312.83;111.97;;;;;;;;;;5052808;28;20243;-43
2022/11/26 09:52:37;;;;;;;384.17;88.50;;;;;;;;;;5053673;28;20668;-43
2022/11/26 09:55:13;;;;;;;385.33;108.37;;;;;;;;;;5032973;28;20239;-46
2022/11/26 09:57:51;;;;;;;298.33;89.30;;;;;;;;;;5052282;28;20234;-43
2022/11/26 10:00:26;;;;;;;228.07;78.47;;;;;;;;;;5033249;28;20319;-42
2022/11/26 10:02:54;;;;;;;381.80;155.83;;;;;;;;;;5050230;28;20668;-42
2022/11/26 10:05:31;;;;;;;326.93;123.90;;;;;;;;;;5051683;28;20235;-43
2022/11/26 10:08:11;;;;;;;279.20;94.43;;;;;;;;;;5053272;28;20292;-42
2022/11/26 10:11:01;;;;;;;199.93;51.17;;;;;;;;;;5056000;28;20672;-43
2022/11/26 10:13:42;;;;;;;144.57;39.23;;;;;;;;;;5044853;28;20544;-45
2022/11/26 10:16:19;;;;;;;154.50;38.67;;;;;;;;;;5048648;28;20236;-44
2022/11/26 10:19:14;;;;;;;143.60;38.47;;;;;;;;;;5040418;28;20747;-47
2022/11/26 10:21:43;;;;;;;143.83;39.53;;;;;;;;;;5049294;28;20219;-50
2022/11/26 10:24:35;;;;;;;147.23;37.67;;;;;;;;;;5055113;28;20224;-46
2022/11/26 10:27:12;;;;;;;145.67;41.23;;;;;;;;;;5052672;28;20687;-46
2022/11/26 10:29:45;;;;;;;144.77;40.67;;;;;;;;;;5039712;28;20221;-42
2022/11/26 10:32:20;;;;;;;140.33;40.43;;;;;;;;;;5038467;28;20315;-43
2022/11/26 10:34:50;;;;;;;143.77;42.70;;;;;;;;;;5052446;28;20223;-42
2022/11/26 10:37:22;;;;;;;132.40;39.27;;;;;;;;;;5041357;28;20223;-40
2022/11/26 10:39:55;;;;;;;156.30;41.33;;;;;;;;;;5044608;28;20216;-40
2022/11/26 10:42:39;;;;;;;139.77;39.50;;;;;;;;;;5038131;28;20216;-40
2022/11/26 10:45:17;;;;;;;133.87;39.70;;;;;;;;;;5043029;28;20657;-41
2022/11/26 10:47:44;;;;;;;133.30;38.00;;;;;;;;;;5047805;28;20224;-43
2022/11/26 10:50:19;;;;;;;143.80;39.53;;;;;;;;;;5054575;28;20590;-40
2022/11/26 10:53:06;;;;;;;153.13;37.60;;;;;;;;;;5045375;28;20317;-41
2022/11/26 10:55:37;;;;;;;156.37;39.10;;;;;;;;;;5040197;28;20220;-43
2022/11/26 10:58:06;;;;;;;144.83;39.63;;;;;;;;;;5056007;28;20254;-40
2022/11/26 11:00:39;;;;;;;159.00;41.03;;;;;;;;;;5055310;28;20235;-40
2022/11/26 11:03:24;;;;;;;164.77;40.20;;;;;;;;;;5054446;28;20338;-41
2022/11/26 11:06:17;;;;;;;152.30;40.63;;;;;;;;;;5053965;28;20232;-42
2022/11/26 11:08:50;;;;;;;164.73;40.90;;;;;;;;;;5054795;28;20248;-40
2022/11/26 11:11:24;;;;;;;163.03;43.83;;;;;;;;;;5054663;28;20442;-41
2022/11/26 11:13:51;;;;;;;174.83;43.57;;;;;;;;;;5053296;28;20325;-41
2022/11/26 11:16:25;;;;;;;164.37;42.53;;;;;;;;;;5054094;28;20672;-43
2022/11/26 11:19:03;;;;;;;165.93;46.73;;;;;;;;;;5053851;28;20219;-40
2022/11/26 11:21:34;;;;;;;189.57;46.60;;;;;;;;;;5054830;28;20224;-40
2022/11/26 11:24:17;;;;;;;167.10;45.57;;;;;;;;;;5041921;28;20224;-45
2022/11/26 11:26:46;;;;;;;177.03;47.60;;;;;;;;;;5046568;28;20576;-43
2022/11/26 11:29:31;;;;;;;192.57;50.57;;;;;;;;;;5063756;28;20299;-40
2022/11/26 11:32:01;;;;;;;173.13;45.77;;;;;;;;;;5049272;28;20228;-41
2022/11/26 11:34:36;;;;;;;178.60;45.27;;;;;;;;;;5053225;28;20231;-39
2022/11/26 11:37:13;;;;;;;179.60;45.37;;;;;;;;;;5055413;28;20231;-41
2022/11/26 11:39:41;;;;;;;161.83;42.83;;;;;;;;;;5051697;28;20220;-41
2022/11/26 11:42:22;;;;;;;180.30;44.57;;;;;;;;;;5049925;28;20682;-41
2022/11/26 11:44:51;;;;;;;170.27;44.87;;;;;;;;;;5059879;28;20223;-41
2022/11/26 11:47:24;;;;;;;160.83;42.37;;;;;;;;;;5052312;28;20300;-41
2022/11/26 11:50:12;;;;;;;172.17;43.17;;;;;;;;;;5055632;28;20266;-41
2022/11/26 11:52:51;;;;;;;174.27;44.30;;;;;;;;;;5050182;28;20196;-40
2022/11/26 11:55:26;;;;;;;173.57;45.00;;;;;;;;;;5043561;28;20629;-39
2022/11/26 11:58:21;;;;;;;164.13;42.73;;;;;;;;;;5045957;28;20266;-42
2022/11/26 12:01:29;;;;;;;162.87;40.87;;;;;;;;;;5044031;28;20720;-39
2022/11/26 12:04:25;;;;;;;170.43;40.87;;;;;;;;;;5045792;28;20201;-39
2022/11/26 12:07:30;;;;;;;178.13;41.77;;;;;;;;;;5045522;28;20279;-41
2022/11/26 12:10:20;;;;;;;166.47;41.40;;;;;;;;;;5042534;28;20200;-40
2022/11/26 12:12:52;;;;;;;170.70;43.00;;;;;;;;;;5044871;28;20193;-41
2022/11/26 12:15:50;;;;;;;190.73;44.83;;;;;;;;;;5039693;28;20547;-41
2022/11/26 12:18:21;;;;;;;178.37;44.57;;;;;;;;;;5042877;28;20213;-43
2022/11/26 12:21:02;;;;;;;164.30;45.63;;;;;;;;;;5047737;28;20224;-42
2022/11/26 12:23:50;;;;;;;160.13;42.57;;;;;;;;;;5045762;28;20601;-40
2022/11/26 12:26:39;;;;;;;195.57;50.90;;;;;;;;;;5048703;28;20534;-43
2022/11/26 12:29:14;;;;;;;200.70;51.37;;;;;;;;;;5043942;28;20250;-43
2022/11/26 12:31:48;;;;;;;195.77;49.97;;;;;;;;;;5046333;28;20674;-45
2022/11/26 12:34:23;;;;;;;185.00;44.43;;;;;;;;;;5045161;28;20223;-42
2022/11/26 12:36:58;;;;;;;187.13;45.37;;;;;;;;;;5054799;28;20592;-47
2022/11/26 12:39:46;;;;;;;188.00;45.77;;;;;;;;;;5050127;28;20246;-42
2022/11/26 12:42:29;;;;;;;176.70;44.23;;;;;;;;;;5054644;28;20227;-44
2022/11/26 12:45:04;;;;;;;178.50;42.37;;;;;;;;;;5047541;28;20539;-44
2022/11/26 12:47:37;;;;;;;170.00;43.57;;;;;;;;;;5054158;28;20231;-47
2022/11/26 12:50:14;;;;;;;165.97;43.17;;;;;;;;;;5053317;28;20216;-43
2022/11/26 12:53:15;;;;;;;185.43;42.80;;;;;;;;;;5052328;28;20223;-48
2022/11/26 12:55:53;;;;;;;181.50;42.60;;;;;;;;;;5042414;28;20217;-46
2022/11/26 12:58:28;;;;;;;175.63;43.67;;;;;;;;;;5031976;28;20224;-45
2022/11/26 13:00:57;;;;;;;193.77;44.17;;;;;;;;;;5051499;28;20250;-43
2022/11/26 13:03:29;;;;;;;211.33;54.77;;;;;;;;;;5054211;28;20235;-43
2022/11/26 13:06:01;;;;;;;211.17;46.87;;;;;;;;;;5052880;28;20212;-44
2022/11/26 13:08:28;;;;;;;245.70;52.13;;;;;;;;;;5051910;28;20239;-46
2022/11/26 13:11:33;;;;;;;211.00;46.47;;;;;;;;;;5046152;28;20297;-42
2022/11/26 13:14:13;;;;;;;224.17;49.47;;;;;;;;;;5037423;28;20215;-44
2022/11/26 13:16:49;;;;;;;204.80;45.13;;;;;;;;;;5062422;28;20562;-43
2022/11/26 13:19:22;;;;;;;237.67;47.13;;;;;;;;;;5049831;28;20219;-42
2022/11/26 13:22:02;;;;;;;211.50;46.57;;;;;;;;;;5052347;28;20234;-43
2022/11/26 13:24:59;;;;;;;207.67;45.03;;;;;;;;;;5053579;28;20224;-43
2022/11/26 13:27:58;;;;;;;221.07;45.17;;;;;;;;;;5026297;28;20224;-44
2022/11/26 13:30:38;;;;;;;266.77;49.90;;;;;;;;;;5015228;28;20233;-45
2022/11/26 13:33:10;;;;;;;302.73;55.13;;;;;;;;;;5030113;28;22896;-45
2022/11/26 13:35:43;;;;;;;256.00;52.90;;;;;;;;;;5031947;28;20661;-43
2022/11/26 13:38:21;;;;;;;295.57;49.93;;;;;;;;;;5030319;28;20344;-44
2022/11/26 13:41:12;;;;;;;256.37;51.40;;;;;;;;;;5027334;28;20229;-44
2022/11/26 13:43:41;;;;;;;302.43;60.27;;;;;;;;;;5011412;28;20229;-42
2022/11/26 13:46:17;;;;;;;318.77;60.63;;;;;;;;;;5023559;28;20229;-42
2022/11/26 13:49:02;;;;;;;345.37;56.20;;;;;;;;;;5031929;28;20232;-44
2022/11/26 13:51:37;;;;;;;344.17;52.43;;;;;;;;;;5026551;28;20288;-46
2022/11/26 13:54:18;;;;;;;441.60;51.13;;;;;;;;;;5011943;28;20230;-43
2022/11/26 13:56:46;;;;;;;316.47;49.00;;;;;;;;;;5028560;28;20285;-43
2022/11/26 13:59:17;;;;;;;488.93;51.50;;;;;;;;;;5016747;28;20224;-46
2022/11/26 14:01:51;;;;;;;362.07;48.93;;;;;;;;;;5031201;28;20286;-45
2022/11/26 14:04:21;;;;;;;407.43;51.90;;;;;;;;;;5035697;28;20282;-45
2022/11/26 14:07:08;;;;;;;366.80;47.80;;;;;;;;;;5040004;28;20232;-46
2022/11/26 14:09:41;;;;;;;363.87;51.37;;;;;;;;;;5033296;28;20312;-43
2022/11/26 14:12:12;;;;;;;424.60;48.47;;;;;;;;;;5050424;28;20232;-44
2022/11/26 14:14:40;;;;;;;412.10;48.33;;;;;;;;;;5045916;28;20251;-44
2022/11/26 14:17:13;;;;;;;390.67;48.77;;;;;;;;;;5050591;28;20269;-45
2022/11/26 14:19:40;;;;;;;363.17;46.83;;;;;;;;;;5053733;28;20247;-45
2022/11/26 14:22:10;;;;;;;381.47;50.60;;;;;;;;;;5052705;28;20251;-44
2022/11/26 14:24:49;;;;;;;425.43;52.13;;;;;;;;;;5053778;28;20232;-44
2022/11/26 14:27:20;;;;;;;452.70;53.90;;;;;;;;;;5051837;28;20285;-45
2022/11/26 14:30:05;;;;;;;481.63;51.37;;;;;;;;;;5053396;28;20294;-44
2022/11/26 14:32:36;;;;;;;393.17;52.57;;;;;;;;;;5053494;28;20231;-44